Time;durP1;ratioP1;P1;durP2;ratioP2;P2;SDS_P1;SDS_P2;PMS_P1;PMS_P2;Temp;Humidity;BMP_temperature;BMP_pressure;BME280_temperature;BME280_humidity;BME280_pressure;Samples;Min_cycle;Max_cycle;Signal;HPM_P1;HPM_P2
2020/12/29 00:00:53;;;;;;;2.65;0.88;;;26.90;39.00;;;;;;5075876;28;20112;-48
2020/12/29 00:03:20;;;;;;;2.80;0.80;;;26.80;39.00;;;;;;5076301;28;20482;-48
2020/12/29 00:05:47;;;;;;;4.28;1.00;;;26.70;39.00;;;;;;5075744;28;20024;-48
2020/12/29 00:08:15;;;;;;;2.53;0.90;;;26.70;39.10;;;;;;5076256;28;20029;-48
2020/12/29 00:10:41;;;;;;;3.38;1.80;;;26.60;39.10;;;;;;5075842;28;20024;-48
2020/12/29 00:13:09;;;;;;;6.68;1.27;;;26.50;39.20;;;;;;5075533;28;20036;-48
2020/12/29 00:15:44;;;;;;;3.53;1.15;;;26.50;39.30;;;;;;5073560;28;20043;-48
2020/12/29 00:18:10;;;;;;;3.60;0.88;;;26.40;39.30;;;;;;5072335;28;20059;-48
2020/12/29 00:20:37;;;;;;;3.15;1.05;;;26.40;39.50;;;;;;5075597;28;20036;-48
2020/12/29 00:23:03;;;;;;;1.45;0.90;;;26.30;39.50;;;;;;5076170;28;20024;-48
2020/12/29 00:25:30;;;;;;;1.83;0.80;;;26.30;39.50;;;;;;5075877;28;20024;-48
2020/12/29 00:27:56;;;;;;;4.13;1.00;;;26.20;39.60;;;;;;5075748;28;20024;-48
2020/12/29 00:30:23;;;;;;;3.75;0.90;;;26.20;39.70;;;;;;5075438;28;20045;-48
2020/12/29 00:32:49;;;;;;;2.03;0.70;;;26.20;39.70;;;;;;5075491;28;20021;-48
2020/12/29 00:35:16;;;;;;;2.55;1.00;;;26.10;39.70;;;;;;5075724;28;20129;-48
2020/12/29 00:37:42;;;;;;;1.27;0.80;;;26.10;39.70;;;;;;5075626;28;20111;-48
2020/12/29 00:40:09;;;;;;;2.83;0.90;;;26.10;39.80;;;;;;5075589;28;20039;-48
2020/12/29 00:42:36;;;;;;;3.65;1.10;;;26.10;39.80;;;;;;5075288;28;20472;-48
2020/12/29 00:45:03;;;;;;;4.72;1.08;;;26.10;39.80;;;;;;5075486;28;20539;-48
2020/12/29 00:47:29;;;;;;;3.90;0.75;;;26.10;39.90;;;;;;5075475;28;20017;-48
2020/12/29 00:49:56;;;;;;;2.83;0.70;;;26.10;39.90;;;;;;5075532;28;20028;-48
2020/12/29 00:52:22;;;;;;;4.30;0.90;;;26.10;39.90;;;;;;5075088;28;20027;-48
2020/12/29 00:54:49;;;;;;;4.43;0.95;;;26.10;39.90;;;;;;5075510;28;20483;-48
2020/12/29 00:57:15;;;;;;;2.97;0.80;;;26.10;39.90;;;;;;5075255;28;20021;-48
2020/12/29 00:59:42;;;;;;;3.25;0.80;;;26.10;40.00;;;;;;5075181;28;20024;-48
2020/12/29 01:02:08;;;;;;;2.42;0.60;;;26.10;39.90;;;;;;5074887;28;20543;-48
2020/12/29 01:04:35;;;;;;;1.88;0.80;;;26.10;39.90;;;;;;5075095;28;20025;-48
2020/12/29 01:07:04;;;;;;;5.47;1.00;;;26.10;39.90;;;;;;5071440;28;20021;-48
2020/12/29 01:09:31;;;;;;;1.48;0.70;;;26.10;40.00;;;;;;5063262;28;20119;-48
2020/12/29 01:11:57;;;;;;;3.45;0.80;;;26.00;40.00;;;;;;5054982;28;20079;-48
2020/12/29 01:14:24;;;;;;;4.63;1.08;;;26.00;40.10;;;;;;5072706;28;20029;-48
2020/12/29 01:16:50;;;;;;;2.45;0.90;;;26.00;40.00;;;;;;5073424;28;20455;-48
2020/12/29 01:19:17;;;;;;;4.65;0.70;;;26.10;40.20;;;;;;5074506;28;20472;-48
2020/12/29 01:21:44;;;;;;;1.17;0.70;;;26.10;40.10;;;;;;5074768;28;20024;-48
2020/12/29 01:24:10;;;;;;;3.00;0.70;;;26.10;40.00;;;;;;5074689;28;20020;-47
2020/12/29 01:26:37;;;;;;;3.35;0.70;;;26.10;40.10;;;;;;5074242;28;20384;-47
2020/12/29 01:29:03;;;;;;;2.25;0.70;;;26.10;40.00;;;;;;5073665;28;20051;-48
2020/12/29 01:31:31;;;;;;;2.33;0.70;;;26.10;40.10;;;;;;5074310;28;20361;-47
2020/12/29 01:33:59;;;;;;;2.30;0.70;;;26.10;40.10;;;;;;5073242;28;20446;-48
2020/12/29 01:36:27;;;;;;;1.50;0.60;;;26.10;40.00;;;;;;5074236;28;20024;-48
2020/12/29 01:38:54;;;;;;;2.05;0.55;;;26.10;40.00;;;;;;5074437;28;20119;-47
2020/12/29 01:41:21;;;;;;;2.13;0.90;;;26.10;40.00;;;;;;5074093;28;20424;-47
2020/12/29 01:43:51;;;;;;;1.90;0.60;;;26.10;40.00;;;;;;5074307;28;20083;-48
2020/12/29 01:46:18;;;;;;;1.35;0.60;;;26.10;40.00;;;;;;5074350;28;20033;-49
2020/12/29 01:48:45;;;;;;;2.35;0.77;;;26.10;40.00;;;;;;5074223;28;20024;-49
2020/12/29 01:51:13;;;;;;;1.38;0.60;;;26.10;40.00;;;;;;5073976;28;20025;-49
2020/12/29 01:53:41;;;;;;;3.00;0.77;;;26.10;40.00;;;;;;5073934;28;20024;-49
2020/12/29 01:56:13;;;;;;;2.72;0.80;;;26.10;40.10;;;;;;5074226;28;20122;-49
2020/12/29 01:58:40;;;;;;;2.10;0.70;;;26.10;40.00;;;;;;5073829;28;20016;-49
2020/12/29 02:01:07;;;;;;;1.63;0.70;;;26.00;40.00;;;;;;5073442;28;20111;-49
2020/12/29 02:03:33;;;;;;;3.47;0.77;;;26.00;40.00;;;;;;5073813;28;20099;-49
2020/12/29 02:06:00;;;;;;;2.58;0.50;;;26.00;40.10;;;;;;5074061;28;20024;-48
2020/12/29 02:08:27;;;;;;;2.15;0.60;;;26.00;40.10;;;;;;5074085;28;20463;-49
2020/12/29 02:10:54;;;;;;;1.55;0.80;;;26.00;40.10;;;;;;5073934;28;20028;-47
2020/12/29 02:13:21;;;;;;;1.98;0.70;;;25.90;40.40;;;;;;5073716;28;20422;-47
2020/12/29 02:15:48;;;;;;;2.33;0.60;;;25.90;40.00;;;;;;5073637;28;20032;-47
2020/12/29 02:18:15;;;;;;;2.42;0.65;;;25.80;40.10;;;;;;5074473;28;20032;-47
2020/12/29 02:20:41;;;;;;;4.00;0.70;;;25.90;40.20;;;;;;5073921;28;20031;-47
2020/12/29 02:23:12;;;;;;;1.55;0.65;;;25.80;40.10;;;;;;5073521;28;20029;-47
2020/12/29 02:25:38;;;;;;;1.73;0.70;;;25.80;40.20;;;;;;5073890;28;20056;-48
2020/12/29 02:28:07;;;;;;;0.88;0.60;;;25.70;40.20;;;;;;5073769;28;20532;-47
2020/12/29 02:30:33;;;;;;;1.55;0.70;;;25.70;40.20;;;;;;5073538;28;20041;-47
2020/12/29 02:33:00;;;;;;;1.35;0.70;;;25.60;40.20;;;;;;5073770;28;20082;-48
2020/12/29 02:35:26;;;;;;;2.00;0.70;;;25.60;40.20;;;;;;5073369;28;20040;-48
2020/12/29 02:37:53;;;;;;;1.48;0.73;;;25.50;40.20;;;;;;5073733;28;20036;-48
2020/12/29 02:40:19;;;;;;;0.73;0.60;;;25.50;40.20;;;;;;5073414;28;20052;-48
2020/12/29 02:42:46;;;;;;;1.15;0.70;;;25.50;40.40;;;;;;5073380;28;20597;-49
2020/12/29 02:45:13;;;;;;;1.05;0.60;;;25.40;40.30;;;;;;5073895;28;20036;-48
2020/12/29 02:47:39;;;;;;;1.65;0.60;;;25.40;40.30;;;;;;5073622;28;20464;-48
2020/12/29 02:50:07;;;;;;;1.13;0.70;;;25.30;40.30;;;;;;5073212;28;20041;-48
2020/12/29 02:52:33;;;;;;;2.15;0.63;;;25.30;40.40;;;;;;5077107;28;20502;-48
2020/12/29 02:55:00;;;;;;;2.05;0.70;;;25.20;40.40;;;;;;5077559;28;20028;-47
2020/12/29 02:57:27;;;;;;;5.70;0.80;;;25.20;40.50;;;;;;5076637;28;20059;-48
2020/12/29 02:59:54;;;;;;;2.88;0.95;;;25.10;40.40;;;;;;5077130;28;20033;-47
2020/12/29 03:02:20;;;;;;;5.00;0.90;;;25.10;40.50;;;;;;5076923;28;20119;-47
2020/12/29 03:04:47;;;;;;;3.13;0.60;;;25.00;40.60;;;;;;5077418;28;20025;-47
2020/12/29 03:07:14;;;;;;;2.58;0.80;;;25.00;40.70;;;;;;5077332;28;20021;-46
2020/12/29 03:09:40;;;;;;;2.35;0.75;;;24.90;40.70;;;;;;5077266;28;20124;-47
2020/12/29 03:12:07;;;;;;;5.30;0.90;;;24.90;40.70;;;;;;5077248;28;20021;-48
2020/12/29 03:14:33;;;;;;;8.25;1.13;;;24.90;40.60;;;;;;5077480;28;20031;-47
2020/12/29 03:17:01;;;;;;;4.80;0.60;;;24.80;40.50;;;;;;5077135;28;20509;-48
2020/12/29 03:19:27;;;;;;;4.53;1.00;;;24.80;40.60;;;;;;5076765;28;20569;-48
2020/12/29 03:21:54;;;;;;;4.50;1.00;;;24.80;40.70;;;;;;5077069;28;20085;-47
2020/12/29 03:24:20;;;;;;;5.32;0.90;;;24.70;40.70;;;;;;5076692;28;20073;-47
2020/12/29 03:26:47;;;;;;;13.35;1.20;;;24.70;40.70;;;;;;5077200;28;20028;-46
2020/12/29 03:29:13;;;;;;;4.47;0.82;;;24.60;40.70;;;;;;5076865;28;20044;-46
2020/12/29 03:31:43;;;;;;;5.47;0.73;;;24.60;40.70;;;;;;5076586;28;20473;-47
2020/12/29 03:34:15;;;;;;;4.15;0.98;;;24.60;40.80;;;;;;5076813;28;20029;-46
2020/12/29 03:36:41;;;;;;;;;;;24.60;40.80;;;;;;5077256;28;20372;-46
2020/12/29 03:39:07;;;;;;;;;;;24.60;41.20;;;;;;5076815;28;19959;-47
2020/12/29 03:41:33;;;;;;;;;;;24.50;41.20;;;;;;5076791;28;20327;-48
2020/12/29 03:43:59;;;;;;;;;;;24.50;41.40;;;;;;5077376;28;19905;-47
2020/12/29 03:46:25;;;;;;;;;;;24.60;41.50;;;;;;5077339;28;19904;-48
2020/12/29 03:48:52;;;;;;;;;;;24.60;41.40;;;;;;5076876;28;19911;-47
2020/12/29 03:51:18;;;;;;;;;;;24.60;41.50;;;;;;5077075;28;19942;-48
2020/12/29 03:53:44;;;;;;;;;;;24.60;41.50;;;;;;5076738;28;20363;-47
2020/12/29 03:56:10;;;;;;;;;;;24.60;41.40;;;;;;5077174;28;19911;-47
2020/12/29 03:58:36;;;;;;;;;;;24.60;41.40;;;;;;5076557;28;20446;-47
2020/12/29 04:01:02;;;;;;;;;;;24.60;41.40;;;;;;5076749;28;19904;-47
2020/12/29 04:03:28;;;;;;;;;;;24.60;41.30;;;;;;5076471;28;19915;-47
2020/12/29 04:05:54;;;;;;;;;;;24.60;41.30;;;;;;5076725;28;20331;-47
2020/12/29 04:08:20;;;;;;;;;;;24.60;42.00;;;;;;5076386;28;19957;-47
2020/12/29 04:10:47;;;;;;;;;;;24.60;41.30;;;;;;5076842;28;19981;-48
2020/12/29 04:13:13;;;;;;;;;;;24.60;41.30;;;;;;5076398;28;19908;-47
2020/12/29 04:15:39;;;;;;;;;;;24.60;41.30;;;;;;5076267;28;19911;-47
2020/12/29 04:18:05;;;;;;;;;;;24.60;41.20;;;;;;5076760;28;19911;-47
2020/12/29 04:20:31;;;;;;;;;;;24.60;41.20;;;;;;5076161;28;20000;-47
2020/12/29 04:22:57;;;;;;;;;;;24.60;41.20;;;;;;5076695;28;20000;-47
2020/12/29 04:25:23;;;;;;;;;;;24.60;41.20;;;;;;5076309;28;20267;-47
2020/12/29 04:27:50;;;;;;;;;;;24.60;41.20;;;;;;5076036;28;19912;-46
2020/12/29 04:30:16;;;;;;;;;;;24.60;41.20;;;;;;5076734;28;19923;-47
2020/12/29 04:32:42;;;;;;;;;;;24.60;41.20;;;;;;5076256;28;19911;-47
2020/12/29 04:35:08;;;;;;;;;;;24.60;41.10;;;;;;5076483;28;19915;-48
2020/12/29 04:37:35;;;;;;;;;;;24.60;41.20;;;;;;5076138;28;19950;-47
2020/12/29 04:40:01;;;;;;;;;;;24.50;41.10;;;;;;5076107;28;20008;-47
2020/12/29 04:42:28;;;;;;;;;;;24.50;41.20;;;;;;5075825;28;19912;-47
2020/12/29 04:44:54;;;;;;;;;;;24.50;41.20;;;;;;5076554;28;19908;-48
2020/12/29 04:47:23;;;;;;;;;;;24.50;41.20;;;;;;5075932;28;19904;-46
2020/12/29 04:49:50;;;;;;;;;;;24.50;41.20;;;;;;5076260;28;19912;-47
2020/12/29 04:52:17;;;;;;;;;;;24.50;41.20;;;;;;5074834;28;19904;-48
2020/12/29 04:54:43;;;;;;;;;;;24.50;41.20;;;;;;5076298;28;19905;-48
2020/12/29 04:57:09;;;;;;;;;;;24.50;41.20;;;;;;5074538;28;19909;-49
2020/12/29 04:59:36;;;;;;;;;;;24.40;41.20;;;;;;5073861;28;19935;-49
2020/12/29 05:02:03;;;;;;;;;;;24.40;41.00;;;;;;5074620;28;19915;-49
2020/12/29 05:04:29;;;;;;;;;;;24.40;40.80;;;;;;5075359;28;19904;-47
2020/12/29 05:06:56;;;;;;;;;;;24.30;40.70;;;;;;5075133;28;19947;-48
2020/12/29 05:09:23;;;;;;;;;;;24.30;40.60;;;;;;5075918;28;19958;-48
2020/12/29 05:11:49;;;;;;;;;;;24.20;40.40;;;;;;5075284;28;19908;-48
2020/12/29 05:14:15;;;;;;;;;;;24.10;40.40;;;;;;5074608;28;19905;-48
2020/12/29 05:16:42;;;;;;;;;;;24.10;40.60;;;;;;5075044;28;19911;-48
2020/12/29 05:19:09;;;;;;;;;;;24.00;40.60;;;;;;5075084;28;19905;-48
2020/12/29 05:21:36;;;;;;;;;;;24.00;40.70;;;;;;5075252;28;19958;-48
2020/12/29 05:24:07;;;;;;;;;;;23.90;40.80;;;;;;5072886;28;19927;-48
2020/12/29 05:26:35;;;;;;;;;;;23.90;40.80;;;;;;5074975;28;19908;-48
2020/12/29 05:29:02;;;;;;;;;;;23.80;40.90;;;;;;5074599;28;19921;-49
2020/12/29 05:31:29;;;;;;;;;;;23.80;41.00;;;;;;5074650;28;20062;-49
2020/12/29 05:33:55;;;;;;;;;;;23.80;41.10;;;;;;5074462;28;19909;-49
2020/12/29 05:36:21;;;;;;;;;;;23.70;41.10;;;;;;5074294;28;19911;-48
2020/12/29 05:38:47;;;;;;;;;;;23.80;41.20;;;;;;5074412;28;19909;-48
2020/12/29 05:41:21;;;;;;;;;;;23.70;41.10;;;;;;5060043;28;20332;-48
2020/12/29 05:43:59;;;;;;;;;;;23.70;41.20;;;;;;5074899;28;19909;-48
2020/12/29 05:46:26;;;;;;;;;;;23.70;41.50;;;;;;5074442;28;20317;-48
2020/12/29 05:48:56;;;;;;;;;;;23.70;41.80;;;;;;5074209;28;19908;-48
2020/12/29 05:51:23;;;;;;;;;;;23.70;41.90;;;;;;5073330;28;19908;-47
2020/12/29 05:53:49;;;;;;;;;;;23.70;42.00;;;;;;5065584;28;20406;-47
2020/12/29 05:56:16;;;;;;;;;;;23.70;42.10;;;;;;5054941;28;19904;-47
2020/12/29 05:58:42;;;;;;;;;;;23.70;42.10;;;;;;5066218;28;20371;-48
2020/12/29 06:01:09;;;;;;;;;;;23.70;42.10;;;;;;5073849;28;20241;-48
2020/12/29 06:03:35;;;;;;;;;;;23.70;42.10;;;;;;5070010;28;19908;-48
2020/12/29 06:06:03;;;;;;;;;;;23.70;42.10;;;;;;5074126;28;20352;-49
2020/12/29 06:08:30;;;;;;;;;;;23.70;42.10;;;;;;5073049;28;19904;-49
2020/12/29 06:11:03;;;;;;;;;;;23.70;42.10;;;;;;5073944;28;19913;-48
2020/12/29 06:13:32;;;;;;;;;;;23.70;42.10;;;;;;5074968;28;19966;-48
2020/12/29 17:44:22;;;;;;;34.30;2.72;;;10.30;60.90;;;;;;4963474;28;20415;-48
2020/12/29 17:46:48;;;;;;;14.90;2.50;;;9.90;60.00;;;;;;4968067;28;20031;-48
2020/12/29 17:49:16;;;;;;;18.23;2.63;;;9.80;60.30;;;;;;4967325;28;20030;-47
2020/12/29 17:51:42;;;;;;;20.05;2.90;;;9.90;60.50;;;;;;4968671;28;20035;-47
2020/12/29 17:54:09;;;;;;;17.85;2.75;;;9.90;60.50;;;;;;4968635;28;20118;-47
2020/12/29 17:56:35;;;;;;;12.95;2.30;;;9.90;60.40;;;;;;4969132;28;20027;-47
2020/12/29 17:59:02;;;;;;;28.02;2.35;;;10.00;60.20;;;;;;4968904;28;20066;-47
2020/12/29 18:01:28;;;;;;;20.45;2.65;;;10.10;60.10;;;;;;4969099;28;20027;-48
2020/12/29 18:03:55;;;;;;;19.75;2.80;;;10.10;60.00;;;;;;4968994;28;20031;-48
2020/12/29 18:06:21;;;;;;;13.68;2.05;;;10.20;59.80;;;;;;4969337;28;20027;-47
2020/12/29 18:08:48;;;;;;;13.38;2.22;;;10.20;59.50;;;;;;4968954;28;20019;-48
2020/12/29 18:11:14;;;;;;;11.25;2.40;;;10.30;59.40;;;;;;4968914;28;20383;-47
2020/12/29 18:13:42;;;;;;;9.95;1.98;;;10.40;59.20;;;;;;4968862;28;20038;-47
2020/12/29 18:16:12;;;;;;;20.33;2.22;;;10.40;59.00;;;;;;4968857;28;20046;-48
2020/12/29 18:18:39;;;;;;;11.07;2.03;;;10.40;58.70;;;;;;4968469;28;20475;-47
2020/12/29 18:21:10;;;;;;;14.38;1.95;;;10.50;58.50;;;;;;4968776;28;20038;-48
2020/12/29 18:23:36;;;;;;;8.95;2.10;;;10.50;58.20;;;;;;4968602;28;20031;-48
2020/12/29 18:26:03;;;;;;;14.73;2.03;;;10.50;58.00;;;;;;4968672;28;20031;-47
2020/12/29 18:28:30;;;;;;;11.63;1.88;;;10.60;57.90;;;;;;4968665;28;20463;-48
2020/12/29 18:30:57;;;;;;;8.85;1.92;;;10.60;57.70;;;;;;4968601;28;20027;-48
2020/12/29 18:33:23;;;;;;;11.05;1.67;;;10.70;57.60;;;;;;4968560;28;20117;-48
2020/12/29 18:35:50;;;;;;;11.23;1.75;;;10.70;57.40;;;;;;4968464;28;20050;-48
2020/12/29 18:38:16;;;;;;;6.10;1.80;;;10.80;57.40;;;;;;4968296;28;20096;-48
2020/12/29 18:40:43;;;;;;;7.45;1.90;;;10.80;57.20;;;;;;4968200;28;20027;-48
2020/12/29 18:43:09;;;;;;;12.15;2.03;;;10.80;57.10;;;;;;4968187;28;20070;-47
2020/12/29 18:45:36;;;;;;;9.48;1.90;;;10.80;56.90;;;;;;4968092;28;20062;-48
2020/12/29 18:48:02;;;;;;;7.85;1.70;;;10.90;56.80;;;;;;4968637;28;20055;-48
2020/12/29 18:50:29;;;;;;;9.18;1.95;;;10.80;56.70;;;;;;4968379;28;20027;-47
2020/12/29 18:52:56;;;;;;;12.07;2.20;;;10.90;56.60;;;;;;4968450;28;20056;-47
2020/12/29 18:55:24;;;;;;;10.10;1.92;;;10.90;56.50;;;;;;4957291;28;20024;-48
2020/12/29 18:57:51;;;;;;;10.00;1.90;;;10.90;56.40;;;;;;4955374;28;20031;-48
2020/12/29 19:00:17;;;;;;;7.72;1.65;;;10.90;56.30;;;;;;4955520;28;20038;-47
2020/12/29 19:02:44;;;;;;;13.82;2.08;;;10.90;56.20;;;;;;4955140;28;20036;-48
2020/12/29 19:05:10;;;;;;;11.32;1.60;;;11.00;56.10;;;;;;4955308;28;20031;-48
2020/12/29 19:07:37;;;;;;;7.22;1.80;;;11.00;56.00;;;;;;4955212;28;20031;-48
2020/12/29 19:10:04;;;;;;;7.35;1.63;;;11.00;55.90;;;;;;4955121;28;20104;-48
2020/12/29 19:12:31;;;;;;;8.00;1.70;;;11.00;55.80;;;;;;4955158;29;20032;-47
2020/12/29 19:14:57;;;;;;;8.77;1.67;;;11.00;55.80;;;;;;4955133;28;20023;-47
2020/12/29 19:17:24;;;;;;;6.78;1.50;;;11.00;55.80;;;;;;4955039;28;20031;-48
2020/12/29 19:19:51;;;;;;;7.28;1.90;;;11.00;55.70;;;;;;4954991;29;20027;-47
2020/12/29 19:22:18;;;;;;;4.15;1.63;;;11.00;55.70;;;;;;4955135;29;20034;-48
2020/12/29 19:24:45;;;;;;;3.55;1.60;;;11.00;55.70;;;;;;4954823;29;20023;-48
2020/12/29 19:27:12;;;;;;;4.80;1.88;;;11.10;55.60;;;;;;4954631;28;20445;-48
2020/12/29 19:29:38;;;;;;;8.63;1.42;;;11.10;55.60;;;;;;4954647;28;20033;-48
2020/12/29 19:32:05;;;;;;;4.50;1.60;;;11.10;55.50;;;;;;4954961;28;20032;-48
2020/12/29 19:34:31;;;;;;;3.65;1.70;;;11.00;55.40;;;;;;4954848;28;20102;-48
2020/12/29 19:37:05;;;;;;;5.80;1.67;;;11.10;55.40;;;;;;4954768;28;20020;-48
2020/12/29 19:39:32;;;;;;;6.05;1.48;;;11.10;55.40;;;;;;4954738;29;20458;-48
2020/12/29 19:41:59;;;;;;;5.57;1.50;;;11.10;55.30;;;;;;4954403;28;20106;-48
2020/12/29 19:44:25;;;;;;;5.43;1.65;;;11.10;55.30;;;;;;4954317;29;20031;-48
2020/12/29 19:46:55;;;;;;;6.03;1.50;;;11.10;55.30;;;;;;4954644;28;20031;-48
2020/12/29 19:49:22;;;;;;;9.05;1.90;;;11.10;55.20;;;;;;4954580;28;20114;-48
2020/12/29 19:51:53;;;;;;;4.00;1.38;;;11.10;55.90;;;;;;4954622;28;20043;-48
2020/12/29 19:54:20;;;;;;;3.55;1.45;;;11.10;55.20;;;;;;4954487;29;20089;-48
2020/12/29 19:56:46;;;;;;;5.07;1.30;;;11.10;55.10;;;;;;4954302;28;20027;-48
2020/12/29 19:59:13;;;;;;;4.72;1.30;;;11.10;55.10;;;;;;4954394;29;20038;-48
2020/12/29 20:01:39;;;;;;;9.73;1.45;;;11.10;55.00;;;;;;4954392;29;20055;-48
2020/12/29 20:04:06;;;;;;;6.72;1.65;;;11.10;55.00;;;;;;4954286;28;20028;-48
2020/12/29 20:06:37;;;;;;;4.65;1.42;;;11.10;54.90;;;;;;4953500;28;20534;-48
2020/12/29 20:09:04;;;;;;;5.90;1.60;;;11.10;54.90;;;;;;4954441;28;20382;-48
2020/12/29 20:11:31;;;;;;;5.93;1.70;;;11.10;54.80;;;;;;4953998;28;20027;-47
2020/12/29 20:13:58;;;;;;;3.85;1.52;;;11.20;54.80;;;;;;4954187;28;20035;-48
2020/12/29 20:16:26;;;;;;;4.82;1.38;;;11.20;54.80;;;;;;4954253;28;20035;-48
2020/12/29 20:18:52;;;;;;;5.15;1.55;;;11.10;54.70;;;;;;4953910;28;20027;-48
2020/12/29 20:21:19;;;;;;;3.45;1.30;;;11.20;54.70;;;;;;4954086;28;20027;-48
2020/12/29 20:23:46;;;;;;;4.35;1.30;;;11.20;54.70;;;;;;4953994;28;20035;-48
2020/12/29 20:26:14;;;;;;;4.78;1.50;;;11.20;54.70;;;;;;4954060;29;20031;-48
2020/12/29 20:28:41;;;;;;;5.38;1.38;;;11.20;54.70;;;;;;4953979;29;20026;-48
2020/12/29 20:31:07;;;;;;;2.63;1.33;;;11.20;54.60;;;;;;4952894;28;20118;-48
2020/12/29 20:33:34;;;;;;;4.05;1.50;;;11.20;54.60;;;;;;4953886;28;20478;-48
2020/12/29 20:36:01;;;;;;;3.63;1.33;;;11.20;54.60;;;;;;4953916;29;20028;-47
2020/12/29 20:38:27;;;;;;;4.28;1.38;;;11.20;54.60;;;;;;4953540;28;20027;-48
2020/12/29 20:40:54;;;;;;;4.38;1.30;;;11.20;54.60;;;;;;4953838;28;20024;-48
2020/12/29 20:43:20;;;;;;;5.60;1.50;;;11.20;54.60;;;;;;4952266;28;20117;-47
2020/12/29 20:45:47;;;;;;;1.60;1.20;;;11.30;54.60;;;;;;4953803;28;20019;-48
2020/12/29 20:48:13;;;;;;;2.03;1.20;;;11.20;54.50;;;;;;4953466;29;20451;-48
2020/12/29 20:50:40;;;;;;;2.30;1.20;;;11.30;54.60;;;;;;4953497;28;20382;-47
2020/12/29 20:53:06;;;;;;;5.70;1.30;;;11.30;54.60;;;;;;4953633;29;20038;-48
2020/12/29 20:55:38;;;;;;;7.15;1.45;;;11.30;54.60;;;;;;4953635;28;20031;-48
2020/12/29 20:58:05;;;;;;;2.90;1.27;;;11.30;54.70;;;;;;4954010;28;20516;-48
2020/12/29 21:00:32;;;;;;;3.42;1.33;;;11.30;54.70;;;;;;4953544;28;20027;-47
2020/12/29 21:02:59;;;;;;;4.68;1.48;;;11.30;54.70;;;;;;4953394;28;20126;-48
2020/12/29 21:05:26;;;;;;;2.20;1.10;;;11.30;54.60;;;;;;4953181;28;20062;-48
2020/12/29 21:07:53;;;;;;;3.60;1.38;;;11.30;54.70;;;;;;4953445;28;20534;-48
2020/12/29 21:10:19;;;;;;;3.88;1.20;;;11.40;54.70;;;;;;4953433;29;20020;-47
2020/12/29 21:12:46;;;;;;;3.65;1.42;;;11.40;54.70;;;;;;4953326;29;20478;-47
2020/12/29 21:15:12;;;;;;;2.33;1.10;;;11.40;54.70;;;;;;4953658;29;20020;-47
2020/12/29 21:17:38;;;;;;;2.22;1.20;;;11.40;54.70;;;;;;4953039;29;20035;-48
2020/12/29 21:20:05;;;;;;;2.67;1.30;;;11.50;54.80;;;;;;4953295;28;20027;-48
2020/12/29 21:22:32;;;;;;;4.18;1.40;;;11.50;55.40;;;;;;4953135;29;20035;-48
2020/12/29 21:24:58;;;;;;;2.83;1.20;;;11.60;54.80;;;;;;4953273;28;20019;-48
2020/12/29 21:27:25;;;;;;;2.67;1.25;;;11.60;54.80;;;;;;4953182;28;20031;-48
2020/12/29 21:29:51;;;;;;;4.28;1.40;;;11.60;54.70;;;;;;4953470;28;20053;-47
2020/12/29 21:32:18;;;;;;;3.65;1.13;;;11.60;54.60;;;;;;4953114;28;20130;-48
2020/12/29 21:34:44;;;;;;;2.55;1.15;;;11.70;54.70;;;;;;4953157;28;20114;-47
2020/12/29 21:37:11;;;;;;;3.65;1.40;;;11.70;54.50;;;;;;4953049;28;20042;-47
2020/12/29 21:39:37;;;;;;;1.30;0.93;;;11.80;54.60;;;;;;4953603;29;20019;-48
2020/12/29 21:42:04;;;;;;;4.28;1.40;;;11.80;54.50;;;;;;4952978;28;20471;-47
2020/12/29 21:44:30;;;;;;;4.28;1.35;;;11.80;54.40;;;;;;4953066;29;20020;-48
2020/12/29 21:46:57;;;;;;;1.65;1.02;;;11.90;54.30;;;;;;4952906;29;20028;-47
2020/12/29 21:49:23;;;;;;;2.40;1.30;;;11.90;54.30;;;;;;4952948;29;20467;-47
2020/12/29 21:51:50;;;;;;;2.35;1.15;;;11.90;54.20;;;;;;4952904;28;20031;-47
2020/12/29 21:54:16;;;;;;;2.00;1.20;;;11.90;54.10;;;;;;4952877;28;20122;-48
2020/12/29 21:56:43;;;;;;;2.92;1.15;;;12.00;54.10;;;;;;4952586;29;20649;-47
2020/12/29 21:59:09;;;;;;;3.33;1.33;;;11.90;54.00;;;;;;4952781;28;20470;-47
2020/12/29 22:01:36;;;;;;;2.72;1.27;;;12.00;53.90;;;;;;4952854;28;20364;-48
2020/12/29 22:04:02;;;;;;;6.47;1.33;;;12.00;53.90;;;;;;4952704;28;20031;-48
2020/12/29 22:06:29;;;;;;;5.47;1.35;;;12.00;53.80;;;;;;4953238;28;20473;-48
2020/12/29 22:08:56;;;;;;;2.63;1.35;;;12.00;53.80;;;;;;4952712;28;20024;-48
2020/12/29 22:11:33;;;;;;;1.98;1.17;;;12.00;53.70;;;;;;4952687;29;20066;-48
2020/12/29 22:14:01;;;;;;;3.88;1.38;;;12.00;54.20;;;;;;4952830;28;20042;-47
2020/12/29 22:16:27;;;;;;;2.92;1.10;;;12.00;53.70;;;;;;4952636;29;20031;-47
2020/12/29 22:18:54;;;;;;;2.47;1.20;;;12.00;53.60;;;;;;4952291;29;20023;-47
2020/12/29 22:21:21;;;;;;;1.50;1.17;;;12.00;53.60;;;;;;4952548;29;20028;-47
2020/12/29 22:23:48;;;;;;;2.10;1.30;;;12.00;53.60;;;;;;4952454;28;20494;-47
2020/12/29 22:26:15;;;;;;;2.15;1.17;;;12.00;53.60;;;;;;4952487;29;20019;-48
2020/12/29 22:28:43;;;;;;;1.77;1.20;;;12.00;54.20;;;;;;4952482;29;20033;-48
2020/12/29 22:31:13;;;;;;;2.88;1.25;;;12.00;53.50;;;;;;4955416;29;20031;-47
2020/12/29 22:33:40;;;;;;;3.78;1.25;;;12.00;53.50;;;;;;4955803;29;20023;-47
2020/12/29 22:36:20;;;;;;;1.70;1.10;;;12.00;54.20;;;;;;4956024;28;20027;-47
2020/12/29 22:38:48;;;;;;;2.47;1.30;;;12.00;53.50;;;;;;4955775;29;20031;-48
2020/12/29 22:41:15;;;;;;;3.08;1.33;;;12.00;53.50;;;;;;4955394;29;20023;-48
2020/12/29 22:43:42;;;;;;;1.92;1.20;;;12.00;53.50;;;;;;4955092;28;20047;-47
2020/12/29 22:46:11;;;;;;;2.03;1.23;;;12.00;53.50;;;;;;4955974;28;20042;-48
2020/12/29 22:48:38;;;;;;;2.80;1.40;;;11.90;53.40;;;;;;4955652;28;20137;-48
2020/12/29 22:51:06;;;;;;;2.05;1.23;;;11.90;53.50;;;;;;4955380;28;20027;-47
2020/12/29 22:53:37;;;;;;;2.55;1.48;;;11.90;53.40;;;;;;4955277;28;20038;-48
2020/12/29 22:56:14;;;;;;;2.77;1.10;;;11.90;53.40;;;;;;4955487;29;20073;-47
2020/12/29 22:58:45;;;;;;;1.90;1.23;;;11.90;53.40;;;;;;4954770;29;20031;-48
2020/12/29 23:01:32;;;;;;;2.65;1.20;;;11.90;53.40;;;;;;4955447;29;20023;-47
2020/12/29 23:04:00;;;;;;;2.95;1.48;;;11.90;53.40;;;;;;4955601;28;20146;-48
2020/12/29 23:06:27;;;;;;;1.98;1.20;;;11.90;53.50;;;;;;4956190;28;20031;-48
2020/12/29 23:08:53;;;;;;;2.03;1.10;;;11.90;53.50;;;;;;4955207;28;20031;-48
2020/12/29 23:11:20;;;;;;;3.53;1.35;;;11.90;53.40;;;;;;4955492;29;20027;-47
2020/12/29 23:13:46;;;;;;;1.65;1.20;;;11.90;53.40;;;;;;4955108;29;20046;-48
2020/12/29 23:16:14;;;;;;;2.10;1.23;;;11.90;53.40;;;;;;4955387;29;20059;-48
2020/12/29 23:18:40;;;;;;;2.67;1.30;;;11.90;53.40;;;;;;4954850;28;20028;-48
2020/12/29 23:21:07;;;;;;;3.83;1.48;;;11.90;53.40;;;;;;4955081;28;20031;-47
2020/12/29 23:23:36;;;;;;;1.73;1.30;;;11.90;53.40;;;;;;4955738;28;20038;-48
2020/12/29 23:26:03;;;;;;;3.20;1.40;;;11.90;53.40;;;;;;4955521;28;20024;-48
2020/12/29 23:28:30;;;;;;;4.82;1.35;;;11.90;53.40;;;;;;4954950;29;20160;-48
2020/12/29 23:30:56;;;;;;;2.72;1.52;;;11.90;53.40;;;;;;4954165;28;20028;-47
2020/12/29 23:33:24;;;;;;;2.22;1.30;;;11.90;53.40;;;;;;4954535;29;20037;-48
2020/12/29 23:35:51;;;;;;;2.83;1.30;;;11.90;53.40;;;;;;4955286;28;20038;-48
2020/12/29 23:38:18;;;;;;;2.92;1.38;;;11.90;53.40;;;;;;4954792;28;20031;-47
2020/12/29 23:40:45;;;;;;;3.55;1.30;;;11.90;53.40;;;;;;4954802;29;20034;-48
2020/12/29 23:43:11;;;;;;;1.88;1.20;;;11.90;53.40;;;;;;4954667;29;20097;-48
2020/12/29 23:45:38;;;;;;;2.70;1.40;;;11.90;53.40;;;;;;4954899;29;20027;-47
2020/12/29 23:48:04;;;;;;;2.22;1.30;;;11.90;53.40;;;;;;4954849;28;20047;-48
2020/12/29 23:50:31;;;;;;;2.63;1.23;;;11.90;53.50;;;;;;4954288;29;20467;-48
2020/12/29 23:52:58;;;;;;;2.60;1.30;;;11.90;53.50;;;;;;4954457;28;20118;-48
2020/12/29 23:55:24;;;;;;;2.20;1.13;;;11.90;53.50;;;;;;4954488;29;20106;-47
2020/12/29 23:57:51;;;;;;;1.80;1.30;;;11.80;53.40;;;;;;4954445;29;20440;-47
